Zim Chicago — A8SI9 — position and weather

sailwx.info

Track history (hours):
 
Tides and Currents Weather Stations Pressure Air Temp Water Temp Dewpoint Dewpoint Depression Visibility Wind Speed Wind Dir Waves Ship Positions

Zim Chicago

Last reported at 2017-Oct-19 12:28 UTC. Time now 2017-Oct-19 12:43 UTC.
Position N 36°56' W 076°20'.

Length 334 m; draft 11.4 m.

Type: Cargo ship. MMSI: 636014223.

Date/timePositionNaut miles runAvg speedWind from/ knotsBaromVisibWave heightAir tempDewpointWater temp
2017-Oct-19 12:28N 36°56' W 076°20'0 0.0
2017-Oct-19 11:58N 36°56' W 076°20'0 0.0
2017-Oct-19 11:28N 36°56' W 076°20'0 0.0
2017-Oct-19 10:58N 36°56' W 076°20'0 0.0
2017-Oct-19 10:28N 36°56' W 076°20'0 0.0
2017-Oct-19 09:58N 36°56' W 076°20'0 0.0
2017-Oct-19 09:28N 36°56' W 076°20'0 0.0
2017-Oct-19 08:58N 36°56' W 076°20'0 0.0
2017-Oct-19 08:28N 36°56' W 076°20'0 0.0
2017-Oct-19 07:58N 36°56' W 076°20'0 0.0
2017-Oct-19 07:28N 36°56' W 076°20'0 0.0
2017-Oct-19 06:55N 36°56' W 076°20'0 0.0
2017-Oct-19 06:25N 36°56' W 076°20'0 0.0
2017-Oct-19 05:55N 36°56' W 076°20'0 0.0
2017-Oct-19 05:28N 36°56' W 076°20'0 0.0
2017-Oct-19 04:58N 36°56' W 076°20'0 0.0
2017-Oct-19 04:25N 36°56' W 076°20'0 0.0
2017-Oct-19 03:55N 36°56' W 076°20'0 0.0
2017-Oct-19 03:28N 36°56' W 076°20'0 0.0
2017-Oct-19 02:58N 36°56' W 076°20'0 0.0
2017-Oct-19 02:28N 36°56' W 076°20'0 0.7
2017-Oct-19 02:01N 36°56' W 076°20'2 3.9
2017-Oct-19 01:30N 36°58' W 076°20'612.1
2017-Oct-19 01:00N 37°00' W 076°13'714.6
2017-Oct-19 00:30N 36°58' W 076°05'715.0
2017-Oct-19 00:01N 36°56' W 075°56'510.9
2017-Oct-18 23:30N 36°52' W 075°51'314 8.5
2017-Oct-17 10:47N 32°50' W 079°54'47 3.8
2017-Oct-16 22:21N 32°05' W 080°10'3 7.7
2017-Oct-16 22:00N 32°04' W 080°13'4 7.5
2017-Oct-16 21:29N 32°03' W 080°17'4 7.4
2017-Oct-16 21:00N 32°01' W 080°21'3 7.0
2017-Oct-16 20:30N 32°00' W 080°25'3 7.1
2017-Oct-16 20:00N 31°59' W 080°29'4 7.1
2017-Oct-16 19:30N 31°58' W 080°33'4 7.7
2017-Oct-16 19:00N 31°57' W 080°37'4 7.8
2017-Oct-16 18:30N 31°57' W 080°42'612.7
2017-Oct-16 18:00N 32°01' W 080°48'611.3
2017-Oct-16 17:31N 32°02' W 080°54'4 8.3
2017-Oct-16 17:00N 32°05' W 080°59'4 7.6
2017-Oct-16 16:31N 32°05' W 081°03'2 4.9
2017-Oct-16 16:00N 32°05' W 081°06'3 5.4
2017-Oct-16 15:31N 32°07' W 081°08'1 0.9
2017-Oct-16 14:57N 32°08' W 081°08'0 0.0
2017-Oct-16 14:27N 32°08' W 081°08'0 0.0
2017-Oct-16 13:27N 32°08' W 081°08'0 0.0
2017-Oct-16 12:57N 32°08' W 081°08'0 0.0
2017-Oct-16 12:27N 32°08' W 081°08'0 0.0
2017-Oct-16 11:57N 32°08' W 081°08'0 0.0
2017-Oct-16 11:21N 32°08' W 081°08'0 0.0
2017-Oct-16 10:57N 32°08' W 081°08'0 0.0
2017-Oct-16 10:27N 32°08' W 081°08'0 0.0
2017-Oct-16 09:57N 32°08' W 081°08'0 0.0
2017-Oct-16 09:21N 32°08' W 081°08'0 0.0
2017-Oct-16 08:57N 32°08' W 081°08'0 0.0
2017-Oct-16 08:27N 32°08' W 081°08'0 0.0
2017-Oct-16 07:57N 32°08' W 081°08'0 0.0
2017-Oct-16 07:27N 32°08' W 081°08'0 0.0
2017-Oct-16 06:57N 32°08' W 081°08'0 0.0
2017-Oct-16 06:18N 32°08' W 081°08'0 0.0
2017-Oct-16 05:57N 32°08' W 081°08'0 0.0
2017-Oct-16 05:21N 32°08' W 081°08'0 0.0
2017-Oct-16 04:57N 32°08' W 081°08'0 0.0
2017-Oct-16 04:27N 32°08' W 081°08'0 0.0
2017-Oct-16 03:57N 32°08' W 081°08'0 0.0
2017-Oct-16 03:27N 32°08' W 081°08'0 0.0
2017-Oct-16 02:57N 32°08' W 081°08'0 0.0
2017-Oct-16 02:15N 32°08' W 081°08'0 0.0
2017-Oct-16 01:57N 32°08' W 081°08'0 0.0
2017-Oct-16 01:09N 32°08' W 081°08'0 0.0
2017-Oct-16 00:57N 32°08' W 081°08'0 0.0
2017-Oct-16 00:27N 32°08' W 081°08'0 0.0
2017-Oct-15 23:45N 32°08' W 081°08'0 0.0
2017-Oct-15 23:27N 32°08' W 081°08'0 0.0
2017-Oct-15 22:57N 32°08' W 081°08'0 0.0
2017-Oct-15 22:27N 32°08' W 081°08'0 0.0
2017-Oct-15 21:57N 32°08' W 081°08'0 0.0
2017-Oct-15 21:27N 32°08' W 081°08'0 0.0
2017-Oct-15 20:57N 32°08' W 081°08'0 0.0
2017-Oct-15 20:27N 32°08' W 081°08'0 0.0
2017-Oct-15 19:57N 32°08' W 081°08'0 0.0
2017-Oct-15 19:27N 32°08' W 081°08'0 0.0
2017-Oct-15 18:57N 32°08' W 081°08'0 0.0
2017-Oct-15 18:27N 32°08' W 081°08'0 0.0
2017-Oct-15 17:57N 32°08' W 081°08'0 0.0
2017-Oct-15 17:27N 32°08' W 081°08'0 0.0
2017-Oct-15 16:51N 32°08' W 081°08'0 0.0
2017-Oct-15 16:27N 32°08' W 081°08'0 0.0
2017-Oct-15 15:57N 32°08' W 081°08'0 0.0
2017-Oct-15 15:27N 32°08' W 081°08'0 0.2
2017-Oct-15 15:00N 32°08' W 081°08'3 2.7
2017-Oct-15 14:00N 32°06' W 081°06'2 4.9
2017-Oct-15 13:30N 32°05' W 081°04'3 5.9
2017-Oct-15 13:00N 32°06' W 081°01'611.1
2017-Oct-15 12:30N 32°02' W 080°56'611.5
2017-Oct-15 12:00N 32°02' W 080°49'714.9
2017-Oct-15 11:30N 31°57' W 080°42'4 9.0
2017-Oct-15 11:00N 31°55' W 080°37'4 7.3
2017-Oct-15 10:30N 31°53' W 080°34'1 1.6
2017-Oct-15 10:00N 31°53' W 080°33'1 2.9
2017-Oct-15 09:31N 31°52' W 080°32'1 2.4
2017-Oct-15 09:00N 31°52' W 080°30'3 5.2
2017-Oct-15 08:30N 31°49' W 080°29'2 5.0
2017-Oct-15 08:00N 31°47' W 080°28'6 7.5
2017-Oct-15 07:14N 31°42' W 080°25'  
Track history (hours):
 
Tides and Currents Weather Stations Pressure Air Temp Water Temp Dewpoint Dewpoint Depression Visibility Wind Speed Wind Dir Waves Ship Positions

Zim Chicago

Last reported at 2017-Oct-19 12:28 UTC. Time now 2017-Oct-19 12:43 UTC.
Position N 36°56' W 076°20'.

Length 334 m; draft 11.4 m.

Type: Cargo ship. MMSI: 636014223.

Date/timePositionNaut miles runAvg speedWind from/ knotsBaromVisibWave heightAir tempDewpointWater temp
2017-Oct-19 12:28N 36°56' W 076°20'0 0.0
2017-Oct-19 11:58N 36°56' W 076°20'0 0.0
2017-Oct-19 11:28N 36°56' W 076°20'0 0.0
2017-Oct-19 10:58N 36°56' W 076°20'0 0.0
2017-Oct-19 10:28N 36°56' W 076°20'0 0.0
2017-Oct-19 09:58N 36°56' W 076°20'0 0.0
2017-Oct-19 09:28N 36°56' W 076°20'0 0.0
2017-Oct-19 08:58N 36°56' W 076°20'0 0.0
2017-Oct-19 08:28N 36°56' W 076°20'0 0.0
2017-Oct-19 07:58N 36°56' W 076°20'0 0.0
2017-Oct-19 07:28N 36°56' W 076°20'0 0.0
2017-Oct-19 06:55N 36°56' W 076°20'0 0.0
2017-Oct-19 06:25N 36°56' W 076°20'0 0.0
2017-Oct-19 05:55N 36°56' W 076°20'0 0.0
2017-Oct-19 05:28N 36°56' W 076°20'0 0.0
2017-Oct-19 04:58N 36°56' W 076°20'0 0.0
2017-Oct-19 04:25N 36°56' W 076°20'0 0.0
2017-Oct-19 03:55N 36°56' W 076°20'0 0.0
2017-Oct-19 03:28N 36°56' W 076°20'0 0.0
2017-Oct-19 02:58N 36°56' W 076°20'0 0.0
2017-Oct-19 02:28N 36°56' W 076°20'0 0.7
2017-Oct-19 02:01N 36°56' W 076°20'2 3.9
2017-Oct-19 01:30N 36°58' W 076°20'612.1
2017-Oct-19 01:00N 37°00' W 076°13'714.6
2017-Oct-19 00:30N 36°58' W 076°05'715.0
2017-Oct-19 00:01N 36°56' W 075°56'510.9
2017-Oct-18 23:30N 36°52' W 075°51'314 8.5
2017-Oct-17 10:47N 32°50' W 079°54'47 3.8
2017-Oct-16 22:21N 32°05' W 080°10'3 7.7
2017-Oct-16 22:00N 32°04' W 080°13'4 7.5
2017-Oct-16 21:29N 32°03' W 080°17'4 7.4
2017-Oct-16 21:00N 32°01' W 080°21'3 7.0
2017-Oct-16 20:30N 32°00' W 080°25'3 7.1
2017-Oct-16 20:00N 31°59' W 080°29'4 7.1
2017-Oct-16 19:30N 31°58' W 080°33'4 7.7
2017-Oct-16 19:00N 31°57' W 080°37'4 7.8
2017-Oct-16 18:30N 31°57' W 080°42'612.7
2017-Oct-16 18:00N 32°01' W 080°48'611.3
2017-Oct-16 17:31N 32°02' W 080°54'4 8.3
2017-Oct-16 17:00N 32°05' W 080°59'4 7.6
2017-Oct-16 16:31N 32°05' W 081°03'2 4.9
2017-Oct-16 16:00N 32°05' W 081°06'3 5.4
2017-Oct-16 15:31N 32°07' W 081°08'1 0.9
2017-Oct-16 14:57N 32°08' W 081°08'0 0.0
2017-Oct-16 14:27N 32°08' W 081°08'0 0.0
2017-Oct-16 13:27N 32°08' W 081°08'0 0.0
2017-Oct-16 12:57N 32°08' W 081°08'0 0.0
2017-Oct-16 12:27N 32°08' W 081°08'0 0.0
2017-Oct-16 11:57N 32°08' W 081°08'0 0.0
2017-Oct-16 11:21N 32°08' W 081°08'0 0.0
2017-Oct-16 10:57N 32°08' W 081°08'0 0.0
2017-Oct-16 10:27N 32°08' W 081°08'0 0.0
2017-Oct-16 09:57N 32°08' W 081°08'0 0.0
2017-Oct-16 09:21N 32°08' W 081°08'0 0.0
2017-Oct-16 08:57N 32°08' W 081°08'0 0.0
2017-Oct-16 08:27N 32°08' W 081°08'0 0.0
2017-Oct-16 07:57N 32°08' W 081°08'0 0.0
2017-Oct-16 07:27N 32°08' W 081°08'0 0.0
2017-Oct-16 06:57N 32°08' W 081°08'0 0.0
2017-Oct-16 06:18N 32°08' W 081°08'0 0.0
2017-Oct-16 05:57N 32°08' W 081°08'0 0.0
2017-Oct-16 05:21N 32°08' W 081°08'0 0.0
2017-Oct-16 04:57N 32°08' W 081°08'0 0.0
2017-Oct-16 04:27N 32°08' W 081°08'0 0.0
2017-Oct-16 03:57N 32°08' W 081°08'0 0.0
2017-Oct-16 03:27N 32°08' W 081°08'0 0.0
2017-Oct-16 02:57N 32°08' W 081°08'0 0.0
2017-Oct-16 02:15N 32°08' W 081°08'0 0.0
2017-Oct-16 01:57N 32°08' W 081°08'0 0.0
2017-Oct-16 01:09N 32°08' W 081°08'0 0.0
2017-Oct-16 00:57N 32°08' W 081°08'0 0.0
2017-Oct-16 00:27N 32°08' W 081°08'0 0.0
2017-Oct-15 23:45N 32°08' W 081°08'0 0.0
2017-Oct-15 23:27N 32°08' W 081°08'0 0.0
2017-Oct-15 22:57N 32°08' W 081°08'0 0.0
2017-Oct-15 22:27N 32°08' W 081°08'0 0.0
2017-Oct-15 21:57N 32°08' W 081°08'0 0.0
2017-Oct-15 21:27N 32°08' W 081°08'0 0.0
2017-Oct-15 20:57N 32°08' W 081°08'0 0.0
2017-Oct-15 20:27N 32°08' W 081°08'0 0.0
2017-Oct-15 19:57N 32°08' W 081°08'0 0.0
2017-Oct-15 19:27N 32°08' W 081°08'0 0.0
2017-Oct-15 18:57N 32°08' W 081°08'0 0.0
2017-Oct-15 18:27N 32°08' W 081°08'0 0.0
2017-Oct-15 17:57N 32°08' W 081°08'0 0.0
2017-Oct-15 17:27N 32°08' W 081°08'0 0.0
2017-Oct-15 16:51N 32°08' W 081°08'0 0.0
2017-Oct-15 16:27N 32°08' W 081°08'0 0.0
2017-Oct-15 15:57N 32°08' W 081°08'0 0.0
2017-Oct-15 15:27N 32°08' W 081°08'0 0.2
2017-Oct-15 15:00N 32°08' W 081°08'3 2.7
2017-Oct-15 14:00N 32°06' W 081°06'2 4.9
2017-Oct-15 13:30N 32°05' W 081°04'3 5.9
2017-Oct-15 13:00N 32°06' W 081°01'611.1
2017-Oct-15 12:30N 32°02' W 080°56'611.5
2017-Oct-15 12:00N 32°02' W 080°49'714.9
2017-Oct-15 11:30N 31°57' W 080°42'4 9.0
2017-Oct-15 11:00N 31°55' W 080°37'4 7.3
2017-Oct-15 10:30N 31°53' W 080°34'1 1.6
2017-Oct-15 10:00N 31°53' W 080°33'1 2.9
2017-Oct-15 09:31N 31°52' W 080°32'1 2.4
2017-Oct-15 09:00N 31°52' W 080°30'3 5.2
2017-Oct-15 08:30N 31°49' W 080°29'2 5.0
2017-Oct-15 08:00N 31°47' W 080°28'6 7.5
2017-Oct-15 07:14N 31°42' W 080°25'  

Dump ship's entire track history